Schwenksville, PA

11:51 AM EST on January 27, 2015 (GMT -0500)
Pottstown Limerick | Change Station
CLOSE
Current Station
Airport
Location: Pottstown,
Elevation: 308 ft
Nearby Weather Stations
Active Advisory: Winter Weather Advisory Active Notice: Public Information Statement

Elev 308 ft 40.24 °N, 75.55 °W | Updated 57 minutes ago

Partly Cloudy
Partly Cloudy
26 °F
Feels Like 14 °F
N
14
Wind Variable Wind from NW

Today
High -- | Low -- °F
--% Chance of Precip.
Yesterday
High -- | Low -- °F
Precip. -- in
7:15 AM 5:14 PM
First Quarter, 55% visible
Pressure 29.78 in
Visibility 10.0 miles
Clouds Few 6500 ft
Windchill 14 °F
Dew Point 14 °F
Humidity 60%
Rainfall 0.01 in
Snow Depth Not available.
UV 3 out of 12
Pollen .10 out of 12
Air Quality Not available.
Flu Activity Not available.
METAR KPTW 271554Z AUTO 31012KT 10SM FEW065 M03/M10 A2977 RMK AO2 SLP083 T10331100

More Conditions Fewer Conditions

Pressure 29.78 in
Visibility 10.0 miles
Clouds Few 6500 ft
Windchill 14 °F
Dew Point 14 °F
Humidity 60%
Rainfall 0.01 in
Snow Depth Not available.
UV 3 out of 12
Pollen .10 out of 12
Air Quality Not available.
Flu Activity Not available.
METAR KPTW 271554Z AUTO 31012KT 10SM FEW065 M03/M10 A2977 RMK AO2 SLP083 T10331100

More Conditions Fewer Conditions

10-Day Weather Forecast

Almanac

Astronomy

Jan. 27, 2015 Rise Set
Actual Time
Civil Twilight
Nautical Twilight
Astronomical Twilight
Moon
Length of Visible Light
Length of Day
Tomorrow will be .
, % of the Moon is Illuminated

Today's Extremes

State Highs State Lows

Community

WunderPhotos

Upload Photos

1,790,725 photos uploaded!

WunderBlogs® & News

Nearby

Air Quality

  Air Quality AQ Index Pollutant
Not available.

Snow Depth

Station Depth Elevation

Earthquake Activity

City Distance Mag. Time & Date
Minimum magnitude displayed is 2.5.

Coastal Water Temperatures

Place Temperature

Nearby Weather Stations